sensor_id;sensor_type;location;lat;lon;timestamp;pressure;altitude;pressure_sealevel;temperature;humidity
61488;BME280;47351;53.326;-6.298;2023-05-11T00:00:36;101042.73;;;11.04;82.97
61488;BME280;47351;53.326;-6.298;2023-05-11T00:03:47;101044.48;;;11.01;83.11
61488;BME280;47351;53.326;-6.298;2023-05-11T00:06:59;101043.42;;;10.99;83.19
61488;BME280;47351;53.326;-6.298;2023-05-11T00:10:10;101044.86;;;10.99;83.34
61488;BME280;47351;53.326;-6.298;2023-05-11T00:13:21;101045.58;;;11.01;83.57
61488;BME280;47351;53.326;-6.298;2023-05-11T00:16:21;101044.89;;;11.02;83.63
61488;BME280;47351;53.326;-6.298;2023-05-11T00:19:32;101044.55;;;11.02;83.63
61488;BME280;47351;53.326;-6.298;2023-05-11T00:22:43;101044.09;;;11.00;83.65
61488;BME280;47351;53.326;-6.298;2023-05-11T00:25:54;101046.52;;;10.97;83.57
61488;BME280;47351;53.326;-6.298;2023-05-11T00:28:54;101044.73;;;10.94;83.59
61488;BME280;47351;53.326;-6.298;2023-05-11T00:32:05;101045.58;;;10.90;83.82
61488;BME280;47351;53.326;-6.298;2023-05-11T00:35:15;101048.33;;;10.88;83.78
61488;BME280;47351;53.326;-6.298;2023-05-11T00:38:26;101050.45;;;10.86;83.87
61488;BME280;47351;53.326;-6.298;2023-05-11T00:41:37;101050.65;;;10.82;84.04
61488;BME280;47351;53.326;-6.298;2023-05-11T00:44:49;101052.73;;;10.78;83.95
61488;BME280;47351;53.326;-6.298;2023-05-11T00:48:00;101054.19;;;10.72;84.22
61488;BME280;47351;53.326;-6.298;2023-05-11T00:51:11;101055.52;;;10.67;84.39
61488;BME280;47351;53.326;-6.298;2023-05-11T00:54:22;101056.75;;;10.64;84.62
61488;BME280;47351;53.326;-6.298;2023-05-11T00:57:33;101054.11;;;10.61;84.65
61488;BME280;47351;53.326;-6.298;2023-05-11T01:00:36;101056.24;;;10.60;84.75
61488;BME280;47351;53.326;-6.298;2023-05-11T01:03:48;101060.05;;;10.59;84.75
61488;BME280;47351;53.326;-6.298;2023-05-11T01:07:03;101060.39;;;10.58;84.92
61488;BME280;47351;53.326;-6.298;2023-05-11T01:10:01;101062.64;;;10.55;84.90
61488;BME280;47351;53.326;-6.298;2023-05-11T01:13:08;101065.48;;;10.51;85.06
61488;BME280;47351;53.326;-6.298;2023-05-11T01:16:19;101070.01;;;10.47;85.15
61488;BME280;47351;53.326;-6.298;2023-05-11T01:19:34;101074.31;;;10.41;85.29
61488;BME280;47351;53.326;-6.298;2023-05-11T01:22:50;101072.86;;;10.36;85.30
61488;BME280;47351;53.326;-6.298;2023-05-11T01:26:09;101075.05;;;10.32;85.33
61488;BME280;47351;53.326;-6.298;2023-05-11T01:29:30;101078.46;;;10.28;85.47
61488;BME280;47351;53.326;-6.298;2023-05-11T01:32:32;101081.36;;;10.27;85.68
61488;BME280;47351;53.326;-6.298;2023-05-11T01:35:49;101083.05;;;10.26;85.72
61488;BME280;47351;53.326;-6.298;2023-05-11T01:39:03;101079.15;;;10.26;86.02
61488;BME280;47351;53.326;-6.298;2023-05-11T01:42:15;101081.63;;;10.26;86.23
61488;BME280;47351;53.326;-6.298;2023-05-11T01:45:21;101083.34;;;10.25;86.24
61488;BME280;47351;53.326;-6.298;2023-05-11T01:48:34;101083.12;;;10.21;86.18
61488;BME280;47351;53.326;-6.298;2023-05-11T01:51:48;101081.30;;;10.18;86.34
61488;BME280;47351;53.326;-6.298;2023-05-11T01:55:01;101077.52;;;10.13;86.30
61488;BME280;47351;53.326;-6.298;2023-05-11T01:58:07;101076.64;;;10.07;86.42
61488;BME280;47351;53.326;-6.298;2023-05-11T02:01:12;101081.55;;;10.03;86.47
61488;BME280;47351;53.326;-6.298;2023-05-11T02:04:14;101085.48;;;9.97;86.56
61488;BME280;47351;53.326;-6.298;2023-05-11T02:07:26;101089.70;;;9.93;86.62
61488;BME280;47351;53.326;-6.298;2023-05-11T02:10:38;101088.95;;;9.90;86.84
61488;BME280;47351;53.326;-6.298;2023-05-11T02:13:49;101093.50;;;9.89;87.11
61488;BME280;47351;53.326;-6.298;2023-05-11T02:17:01;101097.67;;;9.91;87.22
61488;BME280;47351;53.326;-6.298;2023-05-11T02:20:07;101099.09;;;9.92;87.18
61488;BME280;47351;53.326;-6.298;2023-05-11T02:23:18;101096.85;;;9.95;87.18
61488;BME280;47351;53.326;-6.298;2023-05-11T02:26:32;101099.16;;;9.99;87.01
61488;BME280;47351;53.326;-6.298;2023-05-11T02:29:43;101096.98;;;10.03;87.06
61488;BME280;47351;53.326;-6.298;2023-05-11T02:32:55;101098.59;;;10.07;86.88
61488;BME280;47351;53.326;-6.298;2023-05-11T02:36:02;101094.16;;;10.09;86.82
61488;BME280;47351;53.326;-6.298;2023-05-11T02:39:16;101092.69;;;10.09;86.72
61488;BME280;47351;53.326;-6.298;2023-05-11T02:42:30;101102.77;;;10.08;86.61
61488;BME280;47351;53.326;-6.298;2023-05-11T02:45:44;101106.29;;;10.07;86.45
61488;BME280;47351;53.326;-6.298;2023-05-11T02:48:57;101111.91;;;10.06;86.49
61488;BME280;47351;53.326;-6.298;2023-05-11T02:52:09;101109.47;;;10.07;86.55
61488;BME280;47351;53.326;-6.298;2023-05-11T02:55:21;101111.49;;;10.08;86.43
61488;BME280;47351;53.326;-6.298;2023-05-11T02:58:34;101108.75;;;10.11;86.25
61488;BME280;47351;53.326;-6.298;2023-05-11T03:01:58;101111.67;;;10.15;86.25
61488;BME280;47351;53.326;-6.298;2023-05-11T03:05:10;101109.44;;;10.20;86.09
61488;BME280;47351;53.326;-6.298;2023-05-11T03:08:21;101111.95;;;10.24;85.93
61488;BME280;47351;53.326;-6.298;2023-05-11T03:11:24;101108.70;;;10.25;85.90
61488;BME280;47351;53.326;-6.298;2023-05-11T03:14:35;101108.54;;;10.24;86.03
61488;BME280;47351;53.326;-6.298;2023-05-11T03:17:47;101105.54;;;10.22;86.26
61488;BME280;47351;53.326;-6.298;2023-05-11T03:20:59;101101.48;;;10.20;86.56
61488;BME280;47351;53.326;-6.298;2023-05-11T03:24:11;101102.55;;;10.18;86.95
61488;BME280;47351;53.326;-6.298;2023-05-11T03:27:22;101101.84;;;10.16;86.90
61488;BME280;47351;53.326;-6.298;2023-05-11T03:30:26;101101.77;;;10.15;86.89
61488;BME280;47351;53.326;-6.298;2023-05-11T03:33:38;101101.34;;;10.16;86.88
61488;BME280;47351;53.326;-6.298;2023-05-11T03:36:48;101096.67;;;10.18;87.06
61488;BME280;47351;53.326;-6.298;2023-05-11T03:40:00;101099.75;;;10.19;87.11
61488;BME280;47351;53.326;-6.298;2023-05-11T03:43:14;101105.16;;;10.20;87.15
61488;BME280;47351;53.326;-6.298;2023-05-11T03:46:26;101104.41;;;10.23;87.11
61488;BME280;47351;53.326;-6.298;2023-05-11T03:49:38;101106.21;;;10.23;87.11
61488;BME280;47351;53.326;-6.298;2023-05-11T03:52:42;101106.11;;;10.22;87.27
61488;BME280;47351;53.326;-6.298;2023-05-11T03:55:53;101103.85;;;10.21;87.43
61488;BME280;47351;53.326;-6.298;2023-05-11T03:59:04;101101.42;;;10.20;87.48
61488;BME280;47351;53.326;-6.298;2023-05-11T04:02:16;101097.34;;;10.20;87.43
61488;BME280;47351;53.326;-6.298;2023-05-11T04:05:27;101101.94;;;10.20;87.56
61488;BME280;47351;53.326;-6.298;2023-05-11T04:08:38;101100.79;;;10.21;87.49
61488;BME280;47351;53.326;-6.298;2023-05-11T04:11:42;101106.80;;;10.24;87.58
61488;BME280;47351;53.326;-6.298;2023-05-11T04:14:52;101107.36;;;10.26;87.65
61488;BME280;47351;53.326;-6.298;2023-05-11T04:18:05;101110.82;;;10.29;87.68
61488;BME280;47351;53.326;-6.298;2023-05-11T04:21:08;101114.59;;;10.29;87.56
61488;BME280;47351;53.326;-6.298;2023-05-11T04:24:19;101116.46;;;10.28;87.42
61488;BME280;47351;53.326;-6.298;2023-05-11T04:27:33;101123.19;;;10.26;87.44
61488;BME280;47351;53.326;-6.298;2023-05-11T04:30:44;101125.40;;;10.24;87.27
61488;BME280;47351;53.326;-6.298;2023-05-11T04:33:45;101124.55;;;10.21;87.23
61488;BME280;47351;53.326;-6.298;2023-05-11T04:36:56;101124.42;;;10.20;87.36
61488;BME280;47351;53.326;-6.298;2023-05-11T04:40:08;101123.27;;;10.21;87.49
61488;BME280;47351;53.326;-6.298;2023-05-11T04:43:18;101123.98;;;10.24;87.48
61488;BME280;47351;53.326;-6.298;2023-05-11T04:46:11;101123.84;;;10.25;87.47
61488;BME280;47351;53.326;-6.298;2023-05-11T04:49:22;101125.44;;;10.27;87.52
61488;BME280;47351;53.326;-6.298;2023-05-11T04:52:23;101127.11;;;10.29;87.60
61488;BME280;47351;53.326;-6.298;2023-05-11T04:55:33;101126.67;;;10.29;87.55
61488;BME280;47351;53.326;-6.298;2023-05-11T04:58:44;101124.52;;;10.31;87.49
61488;BME280;47351;53.326;-6.298;2023-05-11T05:01:48;101126.45;;;10.33;87.44
61488;BME280;47351;53.326;-6.298;2023-05-11T05:04:42;101131.41;;;10.33;87.32
61488;BME280;47351;53.326;-6.298;2023-05-11T05:07:46;101136.02;;;10.34;87.29
61488;BME280;47351;53.326;-6.298;2023-05-11T05:10:57;101138.14;;;10.34;87.14
61488;BME280;47351;53.326;-6.298;2023-05-11T05:14:06;101139.02;;;10.36;87.24
61488;BME280;47351;53.326;-6.298;2023-05-11T05:17:08;101137.34;;;10.39;87.22
61488;BME280;47351;53.326;-6.298;2023-05-11T05:20:19;101140.41;;;10.40;87.33
61488;BME280;47351;53.326;-6.298;2023-05-11T05:23:28;101139.48;;;10.41;87.36
61488;BME280;47351;53.326;-6.298;2023-05-11T05:26:39;101139.48;;;10.41;87.45
61488;BME280;47351;53.326;-6.298;2023-05-11T05:29:49;101143.17;;;10.41;87.47
61488;BME280;47351;53.326;-6.298;2023-05-11T05:32:59;101141.41;;;10.43;87.51
61488;BME280;47351;53.326;-6.298;2023-05-11T05:36:10;101146.93;;;10.43;87.54
61488;BME280;47351;53.326;-6.298;2023-05-11T05:39:21;101138.73;;;10.41;87.47
61488;BME280;47351;53.326;-6.298;2023-05-11T05:42:21;101137.39;;;10.42;87.58
61488;BME280;47351;53.326;-6.298;2023-05-11T05:45:24;101136.98;;;10.44;87.57
61488;BME280;47351;53.326;-6.298;2023-05-11T05:48:35;101134.59;;;10.47;87.52
61488;BME280;47351;53.326;-6.298;2023-05-11T05:51:31;101137.72;;;10.52;87.58
61488;BME280;47351;53.326;-6.298;2023-05-11T05:54:42;101135.33;;;10.58;87.60
61488;BME280;47351;53.326;-6.298;2023-05-11T05:57:53;101139.31;;;10.64;87.54
61488;BME280;47351;53.326;-6.298;2023-05-11T06:01:04;101142.90;;;10.70;87.39
61488;BME280;47351;53.326;-6.298;2023-05-11T06:04:09;101146.30;;;10.76;87.26
61488;BME280;47351;53.326;-6.298;2023-05-11T06:07:20;101151.78;;;10.82;87.18
61488;BME280;47351;53.326;-6.298;2023-05-11T06:10:30;101151.92;;;10.87;86.97
61488;BME280;47351;53.326;-6.298;2023-05-11T06:13:41;101154.04;;;10.99;86.65
61488;BME280;47351;53.326;-6.298;2023-05-11T06:16:53;101158.02;;;11.09;86.53
61488;BME280;47351;53.326;-6.298;2023-05-11T06:20:04;101155.05;;;11.18;86.22
61488;BME280;47351;53.326;-6.298;2023-05-11T06:23:08;101152.75;;;11.28;86.00
61488;BME280;47351;53.326;-6.298;2023-05-11T06:26:19;101155.47;;;11.39;85.61
61488;BME280;47351;53.326;-6.298;2023-05-11T06:29:26;101156.67;;;11.50;85.36
61488;BME280;47351;53.326;-6.298;2023-05-11T06:32:37;101155.87;;;11.74;85.01
61488;BME280;47351;53.326;-6.298;2023-05-11T06:35:36;101153.81;;;11.98;84.64
61488;BME280;47351;53.326;-6.298;2023-05-11T06:38:38;101159.58;;;12.15;83.73
61488;BME280;47351;53.326;-6.298;2023-05-11T06:41:43;101156.46;;;12.25;83.25
61488;BME280;47351;53.326;-6.298;2023-05-11T06:44:36;101156.30;;;12.38;82.84
61488;BME280;47351;53.326;-6.298;2023-05-11T06:47:32;101160.15;;;12.46;82.40
61488;BME280;47351;53.326;-6.298;2023-05-11T06:50:43;101164.42;;;12.43;82.77
61488;BME280;47351;53.326;-6.298;2023-05-11T06:53:49;101167.72;;;12.33;82.91
61488;BME280;47351;53.326;-6.298;2023-05-11T06:56:42;101169.57;;;12.22;82.98
61488;BME280;47351;53.326;-6.298;2023-05-11T06:59:46;101166.05;;;12.13;83.28
61488;BME280;47351;53.326;-6.298;2023-05-11T07:02:37;101166.14;;;12.17;83.35
61488;BME280;47351;53.326;-6.298;2023-05-11T07:05:48;101169.51;;;12.30;83.04
61488;BME280;47351;53.326;-6.298;2023-05-11T07:08:39;101174.02;;;12.40;82.67
61488;BME280;47351;53.326;-6.298;2023-05-11T07:11:50;101173.57;;;12.30;82.66
61488;BME280;47351;53.326;-6.298;2023-05-11T07:14:43;101176.45;;;12.18;82.88
61488;BME280;47351;53.326;-6.298;2023-05-11T07:17:45;101178.08;;;12.07;83.04
61488;BME280;47351;53.326;-6.298;2023-05-11T07:20:42;101180.80;;;11.98;83.27
61488;BME280;47351;53.326;-6.298;2023-05-11T07:23:37;101183.98;;;11.97;83.36
61488;BME280;47351;53.326;-6.298;2023-05-11T07:26:42;101181.88;;;12.00;83.42
61488;BME280;47351;53.326;-6.298;2023-05-11T07:29:35;101186.00;;;12.03;83.49
61488;BME280;47351;53.326;-6.298;2023-05-11T07:32:46;101184.64;;;12.19;83.43
61488;BME280;47351;53.326;-6.298;2023-05-11T07:35:40;101184.09;;;12.31;83.05
61488;BME280;47351;53.326;-6.298;2023-05-11T07:38:51;101183.66;;;12.38;82.93
61488;BME280;47351;53.326;-6.298;2023-05-11T07:41:44;101186.29;;;12.44;82.83
61488;BME280;47351;53.326;-6.298;2023-05-11T07:44:35;101187.98;;;12.47;82.54
61488;BME280;47351;53.326;-6.298;2023-05-11T07:47:46;101189.21;;;12.52;82.61
61488;BME280;47351;53.326;-6.298;2023-05-11T07:50:57;101191.96;;;12.59;82.27
61488;BME280;47351;53.326;-6.298;2023-05-11T07:54:02;101191.83;;;12.72;81.90
61488;BME280;47351;53.326;-6.298;2023-05-11T07:57:14;101192.09;;;13.00;81.75
61488;BME280;47351;53.326;-6.298;2023-05-11T08:00:06;101194.55;;;13.16;81.10
61488;BME280;47351;53.326;-6.298;2023-05-11T08:03:22;101197.07;;;13.24;80.64
61488;BME280;47351;53.326;-6.298;2023-05-11T08:06:13;101203.55;;;13.17;80.46
61488;BME280;47351;53.326;-6.298;2023-05-11T08:09:06;101204.29;;;13.08;80.76
61488;BME280;47351;53.326;-6.298;2023-05-11T08:12:17;101203.32;;;13.18;80.78
61488;BME280;47351;53.326;-6.298;2023-05-11T08:15:11;101203.19;;;13.57;80.80
61488;BME280;47351;53.326;-6.298;2023-05-11T08:18:01;101204.15;;;14.11;79.71
61488;BME280;47351;53.326;-6.298;2023-05-11T08:21:00;101204.48;;;14.23;79.04
61488;BME280;47351;53.326;-6.298;2023-05-11T08:23:51;101208.65;;;14.21;78.50
61488;BME280;47351;53.326;-6.298;2023-05-11T08:26:42;101200.20;;;15.21;76.37
61488;BME280;47351;53.326;-6.298;2023-05-11T08:29:36;101200.41;;;15.95;74.44
61488;BME280;47351;53.326;-6.298;2023-05-11T08:32:27;101195.33;;;16.88;72.09
61488;BME280;47351;53.326;-6.298;2023-05-11T08:35:18;101195.95;;;17.48;70.22
61488;BME280;47351;53.326;-6.298;2023-05-11T08:38:10;101191.44;;;17.82;68.86
61488;BME280;47351;53.326;-6.298;2023-05-11T08:41:01;101195.95;;;18.38;68.06
61488;BME280;47351;53.326;-6.298;2023-05-11T08:43:53;101196.98;;;18.49;66.84
61488;BME280;47351;53.326;-6.298;2023-05-11T08:46:48;101202.73;;;18.20;66.76
61488;BME280;47351;53.326;-6.298;2023-05-11T08:50:02;101208.80;;;17.88;66.88
61488;BME280;47351;53.326;-6.298;2023-05-11T08:52:53;101205.73;;;17.43;66.16
61488;BME280;47351;53.326;-6.298;2023-05-11T08:55:43;101199.17;;;17.20;66.43
61488;BME280;47351;53.326;-6.298;2023-05-11T08:58:38;101203.01;;;16.68;66.43
61488;BME280;47351;53.326;-6.298;2023-05-11T09:01:40;101206.55;;;16.13;67.46
61488;BME280;47351;53.326;-6.298;2023-05-11T09:04:31;101203.48;;;16.27;67.21
61488;BME280;47351;53.326;-6.298;2023-05-11T09:07:22;101194.48;;;17.49;66.27
61488;BME280;47351;53.326;-6.298;2023-05-11T09:10:14;101186.73;;;19.96;61.50
61488;BME280;47351;53.326;-6.298;2023-05-11T09:13:04;101189.15;;;20.68;59.65
61488;BME280;47351;53.326;-6.298;2023-05-11T09:15:55;101188.64;;;20.07;60.06
61488;BME280;47351;53.326;-6.298;2023-05-11T09:18:49;101184.59;;;19.25;60.74
61488;BME280;47351;53.326;-6.298;2023-05-11T09:21:40;101186.42;;;18.67;62.30
61488;BME280;47351;53.326;-6.298;2023-05-11T09:24:31;101189.30;;;18.33;63.17
61488;BME280;47351;53.326;-6.298;2023-05-11T09:27:22;101193.56;;;18.13;63.05
61488;BME280;47351;53.326;-6.298;2023-05-11T09:30:15;101197.08;;;17.59;62.28
61488;BME280;47351;53.326;-6.298;2023-05-11T09:33:09;101200.86;;;16.76;63.47
61488;BME280;47351;53.326;-6.298;2023-05-11T09:35:59;101211.64;;;16.19;64.84
61488;BME280;47351;53.326;-6.298;2023-05-11T09:38:50;101213.80;;;15.78;65.52
61488;BME280;47351;53.326;-6.298;2023-05-11T09:41:45;101211.17;;;15.42;66.29
61488;BME280;47351;53.326;-6.298;2023-05-11T09:44:39;101207.58;;;15.20;67.31
61488;BME280;47351;53.326;-6.298;2023-05-11T09:47:37;101200.12;;;15.60;67.36
61488;BME280;47351;53.326;-6.298;2023-05-11T09:50:32;101196.48;;;17.37;65.22
61488;BME280;47351;53.326;-6.298;2023-05-11T09:53:22;101180.28;;;20.09;61.73
61488;BME280;47351;53.326;-6.298;2023-05-11T09:56:22;101176.48;;;21.85;58.82
61488;BME280;47351;53.326;-6.298;2023-05-11T09:59:15;101179.08;;;22.63;56.34
61488;BME280;47351;53.326;-6.298;2023-05-11T10:02:19;101176.90;;;22.32;56.01
61488;BME280;47351;53.326;-6.298;2023-05-11T10:05:11;101183.27;;;21.14;56.11
61488;BME280;47351;53.326;-6.298;2023-05-11T10:08:02;101187.67;;;19.79;56.73
61488;BME280;47351;53.326;-6.298;2023-05-11T10:10:53;101194.92;;;18.72;58.17
61488;BME280;47351;53.326;-6.298;2023-05-11T10:13:45;101199.27;;;17.76;58.98
61488;BME280;47351;53.326;-6.298;2023-05-11T10:16:36;101201.78;;;17.16;60.81
61488;BME280;47351;53.326;-6.298;2023-05-11T10:19:26;101199.48;;;16.90;61.39
61488;BME280;47351;53.326;-6.298;2023-05-11T10:22:17;101201.17;;;16.76;61.89
61488;BME280;47351;53.326;-6.298;2023-05-11T10:25:09;101204.75;;;16.66;62.80
61488;BME280;47351;53.326;-6.298;2023-05-11T10:28:00;101209.36;;;16.62;62.98
61488;BME280;47351;53.326;-6.298;2023-05-11T10:30:51;101202.30;;;16.52;63.74
61488;BME280;47351;53.326;-6.298;2023-05-11T10:33:42;101198.20;;;16.41;64.37
61488;BME280;47351;53.326;-6.298;2023-05-11T10:36:37;101195.17;;;16.29;64.49
61488;BME280;47351;53.326;-6.298;2023-05-11T10:39:28;101186.48;;;16.40;64.82
61488;BME280;47351;53.326;-6.298;2023-05-11T10:42:24;101178.15;;;17.15;64.57
61488;BME280;47351;53.326;-6.298;2023-05-11T10:45:19;101173.89;;;18.89;62.75
61488;BME280;47351;53.326;-6.298;2023-05-11T10:48:17;101166.35;;;21.08;59.93
61488;BME280;47351;53.326;-6.298;2023-05-11T10:51:20;101164.13;;;24.24;55.69
61488;BME280;47351;53.326;-6.298;2023-05-11T10:57:27;101155.23;;;28.29;46.13
61488;BME280;47351;53.326;-6.298;2023-05-11T11:03:39;101160.95;;;25.38;45.92
61488;BME280;47351;53.326;-6.298;2023-05-11T11:06:30;101175.98;;;23.36;46.08
61488;BME280;47351;53.326;-6.298;2023-05-11T11:09:21;101180.98;;;21.54;47.31
61488;BME280;47351;53.326;-6.298;2023-05-11T11:12:12;101190.60;;;20.01;49.66
61488;BME280;47351;53.326;-6.298;2023-05-11T11:15:04;101209.95;;;18.69;52.36
61488;BME280;47351;53.326;-6.298;2023-05-11T11:18:08;101216.02;;;17.52;55.23
61488;BME280;47351;53.326;-6.298;2023-05-11T11:21:08;101221.65;;;16.59;58.16
61488;BME280;47351;53.326;-6.298;2023-05-11T11:24:03;101223.63;;;15.89;60.27
61488;BME280;47351;53.326;-6.298;2023-05-11T11:26:54;101220.80;;;15.33;61.83
61488;BME280;47351;53.326;-6.298;2023-05-11T11:30:13;101217.88;;;14.93;63.48
61488;BME280;47351;53.326;-6.298;2023-05-11T11:36:08;101213.94;;;14.48;66.64
61488;BME280;47351;53.326;-6.298;2023-05-11T11:39:00;101208.12;;;14.44;67.93
61488;BME280;47351;53.326;-6.298;2023-05-11T11:42:04;101209.87;;;14.44;68.83
61488;BME280;47351;53.326;-6.298;2023-05-11T11:44:55;101217.61;;;14.42;69.66
61488;BME280;47351;53.326;-6.298;2023-05-11T11:48:29;101227.54;;;14.37;69.52
61488;BME280;47351;53.326;-6.298;2023-05-11T11:51:23;101233.56;;;14.18;69.04
61488;BME280;47351;53.326;-6.298;2023-05-11T11:54:36;101238.59;;;14.00;69.52
61488;BME280;47351;53.326;-6.298;2023-05-11T11:57:42;101238.85;;;13.95;70.27
61488;BME280;47351;53.326;-6.298;2023-05-11T12:00:51;101240.09;;;13.96;70.76
61488;BME280;47351;53.326;-6.298;2023-05-11T12:03:57;101245.71;;;14.01;71.34
61488;BME280;47351;53.326;-6.298;2023-05-11T12:07:08;101244.27;;;14.02;71.72
61488;BME280;47351;53.326;-6.298;2023-05-11T12:10:07;101245.98;;;14.01;72.31
61488;BME280;47351;53.326;-6.298;2023-05-11T12:13:19;101244.34;;;14.00;72.55
61488;BME280;47351;53.326;-6.298;2023-05-11T12:16:31;101248.98;;;14.03;72.99
61488;BME280;47351;53.326;-6.298;2023-05-11T12:19:43;101248.80;;;14.05;73.20
61488;BME280;47351;53.326;-6.298;2023-05-11T12:22:38;101252.30;;;14.06;73.36
61488;BME280;47351;53.326;-6.298;2023-05-11T12:25:29;101252.88;;;14.07;73.60
61488;BME280;47351;53.326;-6.298;2023-05-11T12:28:20;101253.96;;;14.10;73.79
61488;BME280;47351;53.326;-6.298;2023-05-11T12:31:34;101251.70;;;14.28;73.99
61488;BME280;47351;53.326;-6.298;2023-05-11T12:34:25;101243.81;;;15.06;73.05
61488;BME280;47351;53.326;-6.298;2023-05-11T12:37:16;101239.80;;;16.17;70.56
61488;BME280;47351;53.326;-6.298;2023-05-11T12:40:08;101244.43;;;16.42;69.55
61488;BME280;47351;53.326;-6.298;2023-05-11T12:42:59;101251.45;;;16.46;69.07
61488;BME280;47351;53.326;-6.298;2023-05-11T12:45:49;101251.16;;;16.28;68.82
61488;BME280;47351;53.326;-6.298;2023-05-11T12:48:40;101252.63;;;16.04;68.96
61488;BME280;47351;53.326;-6.298;2023-05-11T12:51:47;101252.72;;;15.92;69.07
61488;BME280;47351;53.326;-6.298;2023-05-11T12:54:38;101251.65;;;15.90;68.92
61488;BME280;47351;53.326;-6.298;2023-05-11T12:57:29;101257.89;;;15.75;68.94
61488;BME280;47351;53.326;-6.298;2023-05-11T13:00:24;101264.37;;;15.41;69.84
61488;BME280;47351;53.326;-6.298;2023-05-11T13:03:19;101266.69;;;15.01;70.71
61488;BME280;47351;53.326;-6.298;2023-05-11T13:06:13;101270.01;;;14.60;70.60
61488;BME280;47351;53.326;-6.298;2023-05-11T13:09:08;101273.17;;;14.18;70.41
61488;BME280;47351;53.326;-6.298;2023-05-11T13:12:11;101277.86;;;13.89;71.18
61488;BME280;47351;53.326;-6.298;2023-05-11T13:15:24;101280.73;;;13.65;71.94
61488;BME280;47351;53.326;-6.298;2023-05-11T13:18:19;101279.46;;;13.51;73.14
61488;BME280;47351;53.326;-6.298;2023-05-11T13:21:21;101278.88;;;13.39;74.06
61488;BME280;47351;53.326;-6.298;2023-05-11T13:24:19;101276.80;;;13.32;74.47
61488;BME280;47351;53.326;-6.298;2023-05-11T13:27:30;101275.23;;;13.28;74.80
61488;BME280;47351;53.326;-6.298;2023-05-11T13:30:24;101270.61;;;13.31;75.20
61488;BME280;47351;53.326;-6.298;2023-05-11T13:33:25;101274.52;;;13.44;75.76
61488;BME280;47351;53.326;-6.298;2023-05-11T13:36:36;101277.49;;;14.10;75.33
61488;BME280;47351;53.326;-6.298;2023-05-11T13:39:26;101272.96;;;15.25;73.88
61488;BME280;47351;53.326;-6.298;2023-05-11T13:42:17;101268.73;;;16.66;72.19
61488;BME280;47351;53.326;-6.298;2023-05-11T13:45:08;101266.12;;;17.97;70.12
61488;BME280;47351;53.326;-6.298;2023-05-11T13:48:02;101266.23;;;18.48;68.98
61488;BME280;47351;53.326;-6.298;2023-05-11T13:50:53;101262.48;;;18.32;68.50
61488;BME280;47351;53.326;-6.298;2023-05-11T13:53:46;101265.43;;;18.12;68.25
61488;BME280;47351;53.326;-6.298;2023-05-11T13:56:37;101270.45;;;17.92;68.31
61488;BME280;47351;53.326;-6.298;2023-05-11T13:59:27;101268.92;;;17.80;68.13
61488;BME280;47351;53.326;-6.298;2023-05-11T14:02:18;101268.30;;;17.66;68.18
61488;BME280;47351;53.326;-6.298;2023-05-11T14:05:09;101278.55;;;17.55;68.13
61488;BME280;47351;53.326;-6.298;2023-05-11T14:08:20;101287.05;;;17.42;67.85
61488;BME280;47351;53.326;-6.298;2023-05-11T14:11:10;101291.19;;;17.20;68.16
61488;BME280;47351;53.326;-6.298;2023-05-11T14:14:03;101293.81;;;16.97;68.22
61488;BME280;47351;53.326;-6.298;2023-05-11T14:16:54;101298.20;;;16.93;68.50
61488;BME280;47351;53.326;-6.298;2023-05-11T14:19:45;101290.92;;;17.33;68.03
61488;BME280;47351;53.326;-6.298;2023-05-11T14:22:36;101290.38;;;18.17;66.80
61488;BME280;47351;53.326;-6.298;2023-05-11T14:25:27;101290.64;;;19.18;65.04
61488;BME280;47351;53.326;-6.298;2023-05-11T14:28:18;101287.65;;;20.37;63.47
61488;BME280;47351;53.326;-6.298;2023-05-11T14:31:09;101290.62;;;20.71;62.21
61488;BME280;47351;53.326;-6.298;2023-05-11T14:34:01;101295.90;;;20.62;61.71
61488;BME280;47351;53.326;-6.298;2023-05-11T14:36:52;101297.96;;;20.86;61.02
61488;BME280;47351;53.326;-6.298;2023-05-11T14:39:42;101296.55;;;21.17;60.31
61488;BME280;47351;53.326;-6.298;2023-05-11T14:42:33;101300.65;;;20.80;59.01
61488;BME280;47351;53.326;-6.298;2023-05-11T14:45:24;101309.55;;;20.36;59.27
61488;BME280;47351;53.326;-6.298;2023-05-11T14:48:15;101313.48;;;20.10;59.72
61488;BME280;47351;53.326;-6.298;2023-05-11T14:51:05;101316.04;;;20.12;59.30
61488;BME280;47351;53.326;-6.298;2023-05-11T14:53:56;101313.81;;;20.42;58.55
61488;BME280;47351;53.326;-6.298;2023-05-11T14:56:47;101309.65;;;20.75;58.44
61488;BME280;47351;53.326;-6.298;2023-05-11T14:59:42;101311.72;;;20.98;57.87
61488;BME280;47351;53.326;-6.298;2023-05-11T15:02:46;101309.74;;;21.14;58.20
61488;BME280;47351;53.326;-6.298;2023-05-11T15:05:37;101310.99;;;21.19;57.85
61488;BME280;47351;53.326;-6.298;2023-05-11T15:08:30;101311.35;;;21.35;57.88
61488;BME280;47351;53.326;-6.298;2023-05-11T15:11:21;101319.51;;;21.43;56.88
61488;BME280;47351;53.326;-6.298;2023-05-11T15:14:12;101324.93;;;21.28;57.28
61488;BME280;47351;53.326;-6.298;2023-05-11T15:17:05;101327.14;;;20.88;55.94
61488;BME280;47351;53.326;-6.298;2023-05-11T15:20:01;101330.58;;;20.29;55.64
61488;BME280;47351;53.326;-6.298;2023-05-11T15:22:56;101335.98;;;19.53;56.00
61488;BME280;47351;53.326;-6.298;2023-05-11T15:25:47;101343.89;;;19.01;57.18
61488;BME280;47351;53.326;-6.298;2023-05-11T15:28:38;101349.54;;;18.95;57.73
61488;BME280;47351;53.326;-6.298;2023-05-11T15:31:29;101350.96;;;18.98;57.92
61488;BME280;47351;53.326;-6.298;2023-05-11T15:34:22;101352.97;;;19.09;58.08
61488;BME280;47351;53.326;-6.298;2023-05-11T15:37:13;101353.98;;;19.24;58.13
61488;BME280;47351;53.326;-6.298;2023-05-11T15:40:08;101362.30;;;19.08;57.66
61488;BME280;47351;53.326;-6.298;2023-05-11T15:43:01;101364.72;;;18.70;57.49
61488;BME280;47351;53.326;-6.298;2023-05-11T15:45:51;101366.54;;;18.29;58.34